Time;durP1;ratioP1;P1;durP2;ratioP2;P2;SDS_P1;SDS_P2;PMS_P1;PMS_P2;Temp;Humidity;BMP_temperature;BMP_pressure;BME280_temperature;BME280_humidity;BME280_pressure;Samples;Min_cycle;Max_cycle;Signal;HPM_P1;HPM_P2
2023/05/29 00:02:44;;;;;;;5.50;3.53;;;20.90;64.80;;;;;;10104842;28;20374;-63
2023/05/29 00:07:34;;;;;;;5.85;3.00;;;20.80;65.20;;;;;;10089485;28;20092;-70
2023/05/29 00:12:25;;;;;;;6.85;4.15;;;20.70;65.40;;;;;;10089892;28;20139;-66
2023/05/29 00:17:16;;;;;;;5.80;3.20;;;20.60;65.70;;;;;;10100975;28;20047;-69
2023/05/29 00:22:06;;;;;;;7.85;4.40;;;20.50;66.10;;;;;;10100859;28;20025;-69
2023/05/29 00:26:57;;;;;;;4.43;3.03;;;20.50;66.40;;;;;;10100457;28;20029;-61
2023/05/29 00:31:48;;;;;;;8.50;3.35;;;20.40;66.60;;;;;;10093331;28;20055;-69
2023/05/29 00:36:38;;;;;;;5.40;3.13;;;20.30;66.70;;;;;;10099489;28;20037;-65
2023/05/29 00:41:29;;;;;;;3.45;2.55;;;20.30;67.00;;;;;;10101421;28;20021;-77
2023/05/29 00:46:20;;;;;;;5.95;3.10;;;20.30;67.10;;;;;;10103871;28;20064;-61
2023/05/29 00:51:12;;;;;;;3.50;2.80;;;20.20;67.30;;;;;;10103841;28;20103;-65
2023/05/29 00:56:04;;;;;;;7.07;3.50;;;20.20;67.40;;;;;;10097469;28;20289;-60
2023/05/29 01:00:54;;;;;;;5.05;3.45;;;20.10;67.60;;;;;;10080423;28;20491;-60
2023/05/29 01:05:46;;;;;;;5.00;3.22;;;20.10;67.80;;;;;;10075247;28;20051;-61
2023/05/29 01:10:36;;;;;;;5.28;2.75;;;20.00;68.20;;;;;;10099552;28;20032;-62
2023/05/29 01:15:40;;;;;;;8.25;3.00;;;19.90;68.50;;;;;;10100014;28;20041;-65
2023/05/29 01:20:56;;;;;;;6.45;3.13;;;19.80;68.90;;;;;;10099277;28;20513;-62
2023/05/29 01:26:11;;;;;;;7.70;2.95;;;19.70;69.30;;;;;;10087987;28;20458;-61
2023/05/29 01:31:03;;;;;;;4.90;3.50;;;19.60;69.60;;;;;;10092279;28;20025;-66
2023/05/29 01:35:54;;;;;;;5.70;3.38;;;19.50;69.50;;;;;;10099102;28;20479;-65
2023/05/29 01:40:46;;;;;;;6.55;3.08;;;19.50;69.60;;;;;;10098371;28;20021;-61
2023/05/29 01:45:37;;;;;;;6.20;3.30;;;19.40;69.90;;;;;;10098216;28;20029;-61
2023/05/29 01:50:28;;;;;;;7.82;3.47;;;19.40;69.90;;;;;;10097866;28;20029;-64
2023/05/29 01:55:19;;;;;;;6.15;2.88;;;19.40;70.20;;;;;;10102315;28;20118;-64
2023/05/29 02:00:10;;;;;;;6.57;3.13;;;19.30;70.40;;;;;;10092520;28;20029;-61
2023/05/29 02:05:01;;;;;;;4.47;2.90;;;19.10;70.80;;;;;;10074742;28;20029;-64
2023/05/29 02:09:51;;;;;;;4.57;2.50;;;19.10;70.70;;;;;;10076413;28;20025;-62
2023/05/29 02:14:42;;;;;;;4.93;2.78;;;19.10;71.60;;;;;;10065770;28;20067;-68
2023/05/29 02:19:33;;;;;;;7.78;2.75;;;18.80;71.60;;;;;;10102670;28;20112;-65
2023/05/29 02:24:23;;;;;;;5.90;2.60;;;18.80;71.70;;;;;;10104165;28;20025;-74
2023/05/29 02:29:14;;;;;;;5.28;2.83;;;18.50;72.80;;;;;;10097826;28;20055;-67
2023/05/29 02:34:05;;;;;;;5.05;2.65;;;18.40;72.50;;;;;;10068054;28;20106;-60
2023/05/29 02:38:56;;;;;;;4.72;2.75;;;18.40;72.70;;;;;;10103874;28;20131;-65
2023/05/29 02:43:49;;;;;;;6.75;2.58;;;18.30;73.00;;;;;;10086525;28;20502;-63
2023/05/29 02:48:39;;;;;;;5.85;2.63;;;18.20;73.20;;;;;;10105435;28;20565;-67
2023/05/29 02:53:31;;;;;;;4.07;2.40;;;18.10;73.70;;;;;;10104617;28;20033;-62
2023/05/29 02:58:21;;;;;;;4.38;2.22;;;18.00;73.70;;;;;;10104037;28;20021;-65
2023/05/29 03:03:12;;;;;;;5.65;2.97;;;18.00;73.90;;;;;;10099574;28;20129;-61
2023/05/29 03:08:03;;;;;;;6.88;2.65;;;18.00;74.70;;;;;;10101617;28;20041;-60
2023/05/29 03:12:54;;;;;;;8.13;3.03;;;17.90;74.70;;;;;;10102988;28;20045;-63
2023/05/29 03:17:44;;;;;;;5.43;2.35;;;18.00;74.00;;;;;;10118107;28;20025;-62
2023/05/29 03:22:35;;;;;;;4.28;2.45;;;18.00;73.90;;;;;;10073735;28;20026;-61
2023/05/29 03:27:26;;;;;;;4.10;2.60;;;18.00;73.80;;;;;;10082807;28;20025;-63
2023/05/29 03:32:16;;;;;;;6.05;3.00;;;17.90;74.00;;;;;;10096772;28;20071;-63
2023/05/29 03:37:07;;;;;;;6.28;3.38;;;17.90;73.90;;;;;;10102150;28;20506;-61
2023/05/29 03:41:58;;;;;;;5.00;2.40;;;17.90;74.00;;;;;;10101697;28;20029;-60
2023/05/29 03:46:50;;;;;;;3.00;2.20;;;17.80;74.10;;;;;;10101060;28;20548;-61
2023/05/29 03:51:40;;;;;;;6.63;2.22;;;17.80;74.10;;;;;;10100945;28;20112;-61
2023/05/29 03:56:31;;;;;;;3.42;2.45;;;17.90;73.90;;;;;;10087511;28;20113;-62
2023/05/29 04:01:22;;;;;;;4.85;2.40;;;17.80;73.80;;;;;;10099832;28;20031;-67
2023/05/29 04:06:12;;;;;;;5.05;2.33;;;17.90;73.90;;;;;;10101479;28;20029;-60
2023/05/29 04:11:03;;;;;;;3.60;2.08;;;17.90;73.80;;;;;;10087309;28;20125;-61
2023/05/29 04:15:54;;;;;;;4.18;2.05;;;17.80;73.80;;;;;;10101201;28;20550;-61
2023/05/29 04:20:46;;;;;;;4.45;2.28;;;17.90;73.80;;;;;;10099965;28;20127;-62
2023/05/29 04:25:37;;;;;;;5.65;2.40;;;17.90;73.70;;;;;;10100383;28;20071;-64
2023/05/29 04:30:28;;;;;;;5.10;2.33;;;17.90;73.70;;;;;;10094364;28;20032;-69
2023/05/29 04:35:19;;;;;;;5.68;2.03;;;17.90;73.70;;;;;;10099880;28;20025;-64
2023/05/29 04:40:10;;;;;;;2.65;1.95;;;17.90;73.80;;;;;;10099663;28;20120;-61
2023/05/29 04:45:01;;;;;;;4.38;2.17;;;17.90;73.70;;;;;;10081343;28;20108;-62
2023/05/29 04:49:52;;;;;;;4.65;2.00;;;18.00;74.30;;;;;;10081764;28;20022;-71
2023/05/29 04:54:42;;;;;;;4.68;1.88;;;17.90;73.90;;;;;;10074297;28;20040;-67
2023/05/29 04:59:33;;;;;;;3.30;1.95;;;17.90;73.80;;;;;;10098818;28;20021;-72
2023/05/29 05:04:24;;;;;;;3.88;2.45;;;18.00;73.70;;;;;;10078412;28;20216;-64
2023/05/29 05:09:14;;;;;;;3.85;2.40;;;18.20;73.50;;;;;;10097367;28;20025;-69
2023/05/29 05:14:05;;;;;;;4.88;2.38;;;18.10;73.60;;;;;;10080037;28;20056;-68
2023/05/29 05:18:56;;;;;;;5.05;2.22;;;18.20;74.30;;;;;;10097940;28;20518;-63
2023/05/29 05:23:46;;;;;;;4.00;2.08;;;18.10;73.50;;;;;;10113707;28;20136;-61
2023/05/29 05:28:37;;;;;;;2.80;2.05;;;18.20;73.50;;;;;;10091202;28;20021;-62
2023/05/29 05:33:28;;;;;;;3.83;2.00;;;18.30;73.50;;;;;;10106444;28;20296;-64
2023/05/29 05:38:18;;;;;;;5.70;2.33;;;18.30;73.40;;;;;;10094463;28;20116;-61
2023/05/29 05:43:09;;;;;;;3.65;2.00;;;18.30;73.60;;;;;;10078472;28;20030;-68
2023/05/29 05:48:01;;;;;;;5.15;2.42;;;18.50;73.30;;;;;;10103843;28;20122;-62
2023/05/29 05:52:51;;;;;;;7.45;2.33;;;18.60;73.10;;;;;;10108303;28;20029;-73
2023/05/29 05:57:42;;;;;;;5.75;2.47;;;18.50;73.20;;;;;;10107336;28;20100;-71
2023/05/29 06:02:33;;;;;;;3.97;2.67;;;18.60;73.10;;;;;;10106768;28;20025;-66
2023/05/29 06:07:23;;;;;;;3.25;2.25;;;18.70;73.00;;;;;;10105270;28;20025;-74
2023/05/29 06:12:15;;;;;;;6.75;3.35;;;18.70;73.20;;;;;;10104482;28;20082;-62
2023/05/29 06:17:06;;;;;;;5.53;2.85;;;18.70;73.00;;;;;;10087209;28;20036;-60
2023/05/29 06:22:00;;;;;;;4.10;2.10;;;19.00;72.70;;;;;;10103213;28;20386;-65
2023/05/29 06:26:51;;;;;;;4.00;2.30;;;19.10;72.50;;;;;;10104455;28;20029;-70
2023/05/29 06:31:42;;;;;;;5.80;2.20;;;19.30;72.30;;;;;;10096717;28;20115;-62
2023/05/29 06:36:32;;;;;;;4.00;2.40;;;19.10;72.50;;;;;;10089078;28;20041;-61
2023/05/29 06:41:23;;;;;;;3.92;2.88;;;19.20;72.50;;;;;;10061627;28;20045;-63
2023/05/29 06:46:14;;;;;;;5.63;2.45;;;19.30;72.30;;;;;;10053075;28;20087;-61
2023/05/29 06:51:08;;;;;;;4.75;2.95;;;19.50;72.10;;;;;;10101515;28;20394;-74
2023/05/29 06:55:58;;;;;;;4.20;2.28;;;19.50;72.10;;;;;;10103804;28;20437;-67
2023/05/29 07:00:49;;;;;;;4.05;2.28;;;19.50;72.00;;;;;;10103824;28;20021;-68
2023/05/29 07:05:43;;;;;;;3.60;2.42;;;19.50;71.90;;;;;;10103493;28;20254;-67
2023/05/29 07:10:33;;;;;;;6.75;2.05;;;19.60;71.70;;;;;;10102968;28;20021;-61
2023/05/29 07:15:24;;;;;;;4.45;2.17;;;19.70;71.60;;;;;;10102276;28;20415;-63
2023/05/29 07:20:15;;;;;;;7.10;2.38;;;19.60;71.50;;;;;;10102407;28;20528;-65
2023/05/29 07:25:06;;;;;;;3.78;1.88;;;19.70;71.30;;;;;;10102998;28;20032;-62
2023/05/29 07:29:57;;;;;;;2.80;2.03;;;19.80;71.20;;;;;;10094851;28;20032;-63
2023/05/29 07:34:49;;;;;;;3.78;1.98;;;19.90;71.10;;;;;;10085728;28;20460;-61
2023/05/29 07:39:40;;;;;;;3.42;2.00;;;19.90;71.00;;;;;;10074423;28;20026;-61
2023/05/29 07:44:31;;;;;;;4.68;2.00;;;19.90;71.00;;;;;;10062558;28;20036;-65
2023/05/29 07:49:22;;;;;;;4.57;1.73;;;20.10;70.80;;;;;;10101290;28;20025;-62
2023/05/29 07:54:12;;;;;;;7.18;2.35;;;20.20;70.60;;;;;;10100448;28;20116;-60
2023/05/29 07:59:03;;;;;;;4.57;2.05;;;20.30;70.60;;;;;;10101713;28;20532;-61
2023/05/29 08:03:54;;;;;;;7.07;2.13;;;20.40;70.60;;;;;;10115976;28;20037;-62
2023/05/29 08:08:45;;;;;;;4.90;2.38;;;20.30;70.50;;;;;;10079374;28;20017;-63
2023/05/29 08:13:35;;;;;;;4.63;2.50;;;20.40;70.60;;;;;;10098102;28;20087;-60
2023/05/29 08:18:30;;;;;;;6.30;2.20;;;20.50;70.60;;;;;;10100380;28;20163;-61
2023/05/29 08:23:20;;;;;;;8.30;3.37;;;20.70;70.40;;;;;;10100875;28;20017;-66
2023/05/29 08:28:11;;;;;;;6.35;3.13;;;20.80;70.30;;;;;;10080835;28;20529;-60
2023/05/29 08:33:03;;;;;;;5.90;2.45;;;20.90;70.30;;;;;;10073404;28;20036;-60
2023/05/29 08:37:54;;;;;;;4.60;2.42;;;21.00;70.20;;;;;;10078851;28;20122;-63
2023/05/29 08:43:01;;;;;;;4.32;3.33;;;21.20;70.00;;;;;;10071825;28;20104;-62
2023/05/29 08:47:53;;;;;;;4.95;2.80;;;21.30;70.00;;;;;;10099919;28;20120;-61
2023/05/29 08:52:44;;;;;;;5.45;2.67;;;21.40;69.90;;;;;;10101898;28;20040;-63
2023/05/29 08:57:37;;;;;;;5.35;2.78;;;21.50;69.80;;;;;;10078040;28;20376;-67
2023/05/29 09:02:28;;;;;;;4.68;2.63;;;21.60;69.80;;;;;;10103242;28;20040;-69
2023/05/29 09:07:19;;;;;;;5.22;2.63;;;21.60;69.70;;;;;;10080158;28;20070;-64
2023/05/29 09:12:10;;;;;;;6.85;3.45;;;21.70;69.50;;;;;;10099002;28;20447;-61
2023/05/29 09:17:08;;;;;;;4.43;3.55;;;22.00;69.20;;;;;;10087635;28;20045;-70
2023/05/29 09:22:07;;;;;;;5.75;2.50;;;22.00;69.00;;;;;;10072765;28;20029;-66
2023/05/29 09:27:00;;;;;;;6.35;2.40;;;22.10;69.00;;;;;;10099112;28;20091;-65
2023/05/29 09:31:51;;;;;;;6.13;2.72;;;22.30;68.90;;;;;;10099460;28;20053;-64
2023/05/29 09:36:41;;;;;;;5.10;2.72;;;22.60;68.60;;;;;;10098599;28;20065;-67
2023/05/29 09:41:32;;;;;;;4.60;2.50;;;22.50;68.70;;;;;;10098241;28;20021;-67
2023/05/29 09:46:22;;;;;;;5.40;2.70;;;22.50;68.60;;;;;;10080232;28;20025;-66
2023/05/29 09:51:23;;;;;;;3.90;2.72;;;22.70;68.50;;;;;;10097759;28;20259;-63
2023/05/29 09:56:17;;;;;;;4.43;2.35;;;22.80;68.30;;;;;;10097199;28;20044;-67
2023/05/29 10:01:07;;;;;;;2.93;2.33;;;23.00;68.20;;;;;;10094165;28;20296;-68
2023/05/29 10:05:59;;;;;;;5.00;2.53;;;23.20;68.10;;;;;;10097498;28;20991;-61
2023/05/29 10:10:58;;;;;;;5.78;2.40;;;23.20;68.10;;;;;;10097607;28;20466;-61
2023/05/29 10:15:54;;;;;;;4.85;3.05;;;23.10;68.20;;;;;;10047232;28;20041;-61
2023/05/29 10:20:46;;;;;;;3.47;2.80;;;23.20;68.10;;;;;;10095621;28;20449;-65
2023/05/29 10:25:38;;;;;;;4.25;2.75;;;23.30;68.10;;;;;;10083998;28;20024;-66
2023/05/29 10:30:43;;;;;;;3.97;2.72;;;23.50;68.00;;;;;;10104958;28;20025;-62
2023/05/29 10:35:45;;;;;;;;;;;23.50;68.20;;;;;;10105372;28;20067;-61
2023/05/29 10:40:36;;;;;;;3.65;2.60;;;23.60;68.20;;;;;;10104336;28;19940;-72
2023/05/29 10:45:32;;;;;;;9.43;3.65;;;23.90;68.00;;;;;;10104158;28;20494;-60
2023/05/29 10:50:36;;;;;;;6.38;3.05;;;24.00;68.00;;;;;;10103791;28;20025;-62
2023/05/29 10:55:45;;;;;;;4.00;2.47;;;23.90;67.60;;;;;;10086046;28;20041;-62
2023/05/29 11:00:44;;;;;;;8.32;3.15;;;24.00;68.00;;;;;;10103774;28;20013;-72
2023/05/29 11:05:55;;;;;;;5.68;3.30;;;24.30;67.80;;;;;;10103925;28;20040;-67
2023/05/29 11:10:52;;;;;;;5.28;3.30;;;24.20;67.60;;;;;;10103440;28;20017;-65
2023/05/29 11:15:42;;;;;;;4.32;2.80;;;24.30;67.50;;;;;;10096495;28;20056;-64
2023/05/29 11:20:33;;;;;;;7.43;3.38;;;24.60;67.20;;;;;;10077486;28;20078;-62
2023/05/29 11:25:24;;;;;;;7.55;4.82;;;24.60;67.00;;;;;;10086567;28;20025;-67
2023/05/29 11:30:14;;;;;;;5.72;2.55;;;24.70;66.80;;;;;;10091687;28;20273;-60
2023/05/29 11:35:08;;;;;;;5.40;3.28;;;24.80;66.60;;;;;;10102467;28;20041;-61
2023/05/29 11:40:00;;;;;;;5.73;3.53;;;24.80;66.30;;;;;;10102314;28;20052;-63
2023/05/29 11:44:50;;;;;;;5.53;2.80;;;24.90;66.10;;;;;;10102047;28;20286;-68
2023/05/29 11:49:41;;;;;;;6.90;3.33;;;25.00;65.70;;;;;;10071838;28;20036;-68
2023/05/29 11:54:34;;;;;;;4.47;2.75;;;25.00;65.60;;;;;;10074051;28;20039;-65
2023/05/29 11:59:28;;;;;;;5.43;2.80;;;25.20;65.40;;;;;;10116857;28;20463;-71
2023/05/29 12:04:19;;;;;;;3.92;2.40;;;25.40;65.00;;;;;;10101440;28;20021;-60
2023/05/29 12:09:31;;;;;;;5.10;2.65;;;25.60;65.10;;;;;;10100786;28;20032;-59
2023/05/29 12:14:22;;;;;;;4.75;2.78;;;25.90;63.70;;;;;;10081142;28;20105;-61
2023/05/29 12:19:13;;;;;;;3.65;2.80;;;26.00;64.40;;;;;;10094315;28;20017;-63
2023/05/29 12:24:05;;;;;;;6.05;2.92;;;26.20;64.70;;;;;;10060866;28;20033;-61
2023/05/29 12:28:55;;;;;;;3.95;2.42;;;26.40;63.40;;;;;;10075011;28;20495;-61
2023/05/29 12:33:46;;;;;;;7.65;2.85;;;26.60;63.20;;;;;;10099978;28;20097;-61
2023/05/29 12:38:47;;;;;;;6.78;3.00;;;26.90;63.00;;;;;;10099444;28;20029;-61
2023/05/29 12:43:39;;;;;;;4.03;2.65;;;27.20;61.20;;;;;;10099522;28;20021;-74
2023/05/29 12:48:31;;;;;;;7.63;2.97;;;27.60;62.50;;;;;;10099407;28;20378;-70
2023/05/29 12:53:21;;;;;;;6.13;3.45;;;27.80;61.60;;;;;;10099342;28;20376;-65
2023/05/29 12:58:14;;;;;;;4.20;2.88;;;28.40;61.00;;;;;;10098913;28;20495;-64
2023/05/29 13:03:08;;;;;;;4.47;3.28;;;29.60;60.10;;;;;;10098781;28;20394;-62
2023/05/29 13:07:59;;;;;;;5.22;3.35;;;30.00;59.10;;;;;;10094845;28;20040;-71
2023/05/29 13:12:53;;;;;;;7.20;3.03;;;30.40;58.20;;;;;;10071839;28;20054;-67
2023/05/29 13:17:44;;;;;;;5.68;2.67;;;30.80;57.60;;;;;;10093009;28;20129;-72
2023/05/29 13:22:35;;;;;;;3.85;3.13;;;31.60;57.20;;;;;;10090491;28;20021;-61
2023/05/29 13:27:26;;;;;;;6.70;2.80;;;32.20;56.50;;;;;;10098116;28;20570;-69
2023/05/29 13:32:17;;;;;;;;;;;32.50;55.50;;;;;;10070859;28;20092;-63
2023/05/29 13:37:08;;;;;;;5.15;2.72;;;32.40;54.10;;;;;;10060878;28;19913;-68
2023/05/29 13:42:00;;;;;;;3.93;2.97;;;32.80;54.80;;;;;;10098487;28;20078;-67
2023/05/29 13:46:50;;;;;;;4.32;3.20;;;32.90;53.70;;;;;;10097991;28;20490;-66
2023/05/29 13:51:41;;;;;;;4.40;2.73;;;32.70;53.00;;;;;;10101748;28;20025;-65
2023/05/29 13:56:32;;;;;;;4.03;2.67;;;33.10;52.60;;;;;;10106069;28;20029;-64
2023/05/29 14:01:24;;;;;;;8.17;3.07;;;33.30;51.90;;;;;;10105390;28;20399;-60
2023/05/29 14:06:14;;;;;;;3.00;2.70;;;34.00;50.70;;;;;;10085991;28;20033;-62
2023/05/29 14:11:05;;;;;;;3.23;2.23;;;32.80;49.90;;;;;;10082359;28;20013;-61
2023/05/29 14:15:56;;;;;;;3.63;2.43;;;33.10;49.20;;;;;;10095653;28;20048;-62
2023/05/29 14:20:48;;;;;;;4.22;2.40;;;33.10;49.00;;;;;;10085154;28;20029;-69
2023/05/29 14:25:39;;;;;;;5.15;2.60;;;33.10;48.60;;;;;;10084528;28;20033;-62
2023/05/29 14:30:30;;;;;;;5.15;2.35;;;33.20;48.20;;;;;;10096535;28;20029;-63
2023/05/29 14:35:20;;;;;;;6.07;2.50;;;33.30;47.50;;;;;;10104046;28;20435;-62
2023/05/29 14:40:11;;;;;;;3.87;2.13;;;32.90;47.40;;;;;;10104422;28;20032;-62
2023/05/29 14:45:02;;;;;;;3.30;2.50;;;33.00;47.40;;;;;;10104319;28;20021;-63
2023/05/29 14:49:53;;;;;;;4.18;2.83;;;33.40;47.20;;;;;;10104436;28;20427;-63
2023/05/29 14:54:44;;;;;;;2.97;2.63;;;33.70;46.80;;;;;;10103935;28;20106;-61
2023/05/29 14:59:35;;;;;;;5.10;2.77;;;33.50;46.80;;;;;;10103356;28;20098;-67
2023/05/29 15:04:25;;;;;;;3.50;2.50;;;33.10;46.70;;;;;;10071333;28;20353;-66
2023/05/29 15:09:16;;;;;;;6.50;2.80;;;33.70;46.30;;;;;;10078622;28;20044;-74
2023/05/29 15:14:07;;;;;;;3.87;2.47;;;33.30;46.70;;;;;;10090226;28;20056;-60
2023/05/29 15:18:58;;;;;;;4.93;2.40;;;33.30;46.50;;;;;;10102505;28;20437;-67
2023/05/29 15:23:48;;;;;;;6.53;3.43;;;33.30;46.40;;;;;;10102992;28;20083;-77
2023/05/29 15:28:39;;;;;;;4.37;2.50;;;33.60;46.40;;;;;;10096218;28;20013;-73
2023/05/29 15:33:30;;;;;;;6.67;2.40;;;33.70;46.20;;;;;;10102704;28;20275;-68
2023/05/29 15:38:21;;;;;;;6.40;2.37;;;33.50;45.90;;;;;;10089269;28;20029;-62
2023/05/29 15:43:11;;;;;;;2.93;2.33;;;33.80;45.80;;;;;;10101763;28;20028;-61
2023/05/29 15:48:02;;;;;;;3.33;2.33;;;34.10;45.60;;;;;;10101320;28;20140;-62
2023/05/29 15:52:52;;;;;;;2.40;2.07;;;34.50;45.30;;;;;;10101199;28;20468;-61
2023/05/29 15:57:43;;;;;;;6.30;2.53;;;34.80;44.90;;;;;;10092866;28;20033;-62
2023/05/29 16:02:34;;;;;;;2.77;2.20;;;34.80;44.70;;;;;;10078889;28;20037;-65
2023/05/29 16:07:26;;;;;;;3.47;2.20;;;35.10;44.30;;;;;;10076246;28;20025;-62
2023/05/29 16:12:17;;;;;;;2.80;2.08;;;35.40;44.00;;;;;;10087286;28;20646;-61
2023/05/29 16:17:07;;;;;;;5.27;2.20;;;36.40;43.30;;;;;;10099684;28;20196;-68
2023/05/29 16:21:58;;;;;;;6.13;2.47;;;37.00;43.00;;;;;;10100507;28;20021;-63
2023/05/29 16:26:49;;;;;;;2.67;2.00;;;37.60;42.50;;;;;;10100492;28;20025;-62
2023/05/29 16:31:40;;;;;;;2.47;1.70;;;37.20;42.40;;;;;;10093905;28;20028;-64
2023/05/29 16:36:30;;;;;;;6.75;2.60;;;37.60;42.30;;;;;;10098799;28;20032;-63
2023/05/29 16:41:21;;;;;;;3.80;2.10;;;38.00;42.10;;;;;;10100023;28;20029;-62
2023/05/29 16:46:12;;;;;;;3.03;1.80;;;38.00;42.10;;;;;;10099741;28;20051;-65
2023/05/29 16:51:03;;;;;;;3.73;2.30;;;37.50;42.00;;;;;;10098909;28;20518;-62
2023/05/29 16:55:54;;;;;;;3.15;1.95;;;37.50;41.90;;;;;;10099212;28;20112;-64
2023/05/29 17:00:44;;;;;;;2.28;2.00;;;37.50;42.00;;;;;;10095089;28;20072;-62
2023/05/29 17:05:35;;;;;;;3.47;2.10;;;36.80;42.10;;;;;;10063009;28;20029;-62
2023/05/29 17:10:32;;;;;;;2.97;1.97;;;36.40;42.10;;;;;;10069474;28;20438;-63
2023/05/29 17:15:22;;;;;;;2.75;2.20;;;36.60;42.10;;;;;;10044559;28;20128;-62
2023/05/29 17:20:15;;;;;;;2.77;1.97;;;36.50;42.30;;;;;;10098409;28;20120;-63
2023/05/29 17:25:06;;;;;;;3.83;2.10;;;36.20;42.20;;;;;;10100329;28;20475;-66
2023/05/29 17:29:56;;;;;;;2.83;2.03;;;35.70;42.30;;;;;;10111930;28;20033;-64
2023/05/29 17:34:47;;;;;;;2.77;2.17;;;35.40;42.40;;;;;;10101250;28;20043;-69
2023/05/29 17:39:38;;;;;;;4.30;1.97;;;34.90;42.50;;;;;;10099802;28;20083;-68
2023/05/29 17:44:28;;;;;;;3.60;2.27;;;34.60;42.70;;;;;;10099104;28;20037;-68
2023/05/29 17:49:20;;;;;;;4.03;2.50;;;34.00;43.10;;;;;;10071333;28;20433;-62
2023/05/29 17:54:10;;;;;;;4.45;2.58;;;33.20;43.40;;;;;;10081948;28;20048;-61
2023/05/29 17:59:01;;;;;;;4.22;2.15;;;31.40;44.60;;;;;;10089985;28;20342;-71
2023/05/29 18:03:52;;;;;;;3.15;2.40;;;30.10;45.30;;;;;;10094237;28;20029;-67
2023/05/29 18:08:45;;;;;;;7.75;3.03;;;29.20;45.80;;;;;;10115296;28;20379;-71
2023/05/29 18:13:36;;;;;;;5.22;2.47;;;28.80;46.20;;;;;;10058277;28;20052;-67
2023/05/29 18:18:26;;;;;;;6.50;2.53;;;28.30;46.50;;;;;;10087396;28;20394;-64
2023/05/29 18:23:17;;;;;;;4.80;2.80;;;28.00;46.90;;;;;;10098680;28;20513;-61
2023/05/29 18:28:08;;;;;;;3.80;1.83;;;27.90;47.70;;;;;;10084097;28;20029;-62
2023/05/29 18:33:00;;;;;;;3.40;2.00;;;27.70;47.30;;;;;;10088259;28;20032;-66
2023/05/29 18:37:51;;;;;;;3.35;1.95;;;27.50;47.70;;;;;;10098451;28;20140;-63
2023/05/29 18:42:41;;;;;;;2.92;1.83;;;27.40;47.80;;;;;;10104190;28;20566;-61
2023/05/29 18:47:32;;;;;;;5.68;2.42;;;27.30;47.90;;;;;;10100008;28;20065;-63
2023/05/29 18:52:25;;;;;;;3.45;2.42;;;27.10;48.10;;;;;;10081175;28;20498;-61
2023/05/29 18:57:15;;;;;;;4.90;2.20;;;27.10;48.20;;;;;;10103881;28;20056;-62
2023/05/29 19:02:06;;;;;;;3.90;1.88;;;27.00;48.20;;;;;;10085581;28;20021;-63
2023/05/29 19:06:57;;;;;;;3.80;1.92;;;26.90;48.40;;;;;;10103301;28;20343;-62
2023/05/29 19:11:48;;;;;;;4.88;2.50;;;26.70;48.50;;;;;;10103167;28;20083;-66
2023/05/29 19:16:38;;;;;;;4.20;2.53;;;26.80;48.60;;;;;;10102918;28;20048;-66
2023/05/29 19:21:29;;;;;;;3.40;2.00;;;26.60;48.80;;;;;;10102689;28;20046;-61
2023/05/29 19:26:21;;;;;;;5.22;2.90;;;26.40;49.00;;;;;;10102793;28;20037;-61
2023/05/29 19:31:12;;;;;;;5.18;2.33;;;26.40;49.00;;;;;;10102384;28;20027;-62
2023/05/29 19:36:03;;;;;;;6.03;2.00;;;26.40;49.00;;;;;;10103496;28;20135;-63
2023/05/29 19:40:55;;;;;;;3.70;2.15;;;25.90;49.80;;;;;;10107947;28;20025;-63
2023/05/29 19:45:46;;;;;;;4.80;2.38;;;25.80;50.10;;;;;;10086546;28;20121;-69
2023/05/29 19:50:36;;;;;;;4.93;2.10;;;25.50;50.80;;;;;;10104354;28;20443;-69
2023/05/29 19:55:27;;;;;;;3.85;2.25;;;25.30;51.50;;;;;;10102809;28;20048;-61
2023/05/29 20:00:18;;;;;;;7.53;2.78;;;25.00;53.10;;;;;;10062525;28;20032;-62
2023/05/29 20:05:09;;;;;;;4.25;2.75;;;25.00;53.20;;;;;;10070453;28;20403;-67
2023/05/29 20:10:00;;;;;;;5.20;2.40;;;24.90;53.90;;;;;;10095096;28;20017;-75
2023/05/29 20:14:51;;;;;;;4.18;2.70;;;24.80;54.70;;;;;;10098206;28;20037;-67
2023/05/29 20:19:51;;;;;;;6.35;2.70;;;24.60;55.90;;;;;;10112619;28;20119;-63
2023/05/29 20:24:41;;;;;;;3.10;2.40;;;24.60;56.70;;;;;;10046366;28;20144;-67
2023/05/29 20:29:33;;;;;;;4.72;2.70;;;24.40;57.70;;;;;;10090735;28;20063;-60
2023/05/29 20:34:24;;;;;;;2.55;2.03;;;24.30;58.20;;;;;;10077912;28;20036;-69
2023/05/29 20:39:15;;;;;;;3.75;2.25;;;24.20;59.10;;;;;;10091715;28;20029;-62
2023/05/29 20:44:06;;;;;;;4.75;2.38;;;24.10;60.00;;;;;;10101474;28;20481;-64
2023/05/29 20:48:57;;;;;;;5.32;2.40;;;23.90;60.70;;;;;;10100070;28;20036;-64
2023/05/29 20:53:49;;;;;;;4.95;2.58;;;23.80;61.50;;;;;;10099254;28;20043;-60
2023/05/29 20:58:39;;;;;;;6.20;3.03;;;23.80;61.50;;;;;;10100010;28;20013;-60
2023/05/29 21:03:30;;;;;;;3.10;2.22;;;23.80;61.90;;;;;;10099347;28;20115;-61
2023/05/29 21:08:21;;;;;;;7.25;2.63;;;23.70;62.30;;;;;;10099575;28;20040;-61
2023/05/29 21:13:11;;;;;;;4.72;2.90;;;23.60;62.90;;;;;;10113596;28;20048;-61
2023/05/29 21:18:02;;;;;;;5.40;2.92;;;23.60;62.80;;;;;;10098968;28;20040;-61
2023/05/29 21:22:53;;;;;;;6.88;3.45;;;23.40;63.30;;;;;;10098752;28;20048;-63
2023/05/29 21:27:44;;;;;;;7.05;2.40;;;23.30;63.60;;;;;;10092486;28;20025;-62
2023/05/29 21:32:34;;;;;;;4.35;2.33;;;23.20;64.40;;;;;;10092346;28;20025;-65
2023/05/29 21:37:25;;;;;;;3.60;2.70;;;23.10;64.80;;;;;;10082913;28;20045;-64
2023/05/29 21:42:16;;;;;;;4.13;2.35;;;23.00;65.40;;;;;;10079411;28;20025;-68
2023/05/29 21:47:07;;;;;;;5.43;2.67;;;22.90;65.80;;;;;;10080537;28;20636;-70
2023/05/29 21:51:58;;;;;;;5.55;3.50;;;22.90;66.30;;;;;;10085843;28;20261;-67
2023/05/29 21:56:48;;;;;;;5.68;2.20;;;22.70;66.60;;;;;;10100739;28;20037;-65
2023/05/29 22:01:40;;;;;;;3.95;2.60;;;22.60;66.70;;;;;;10098098;28;20029;-71
2023/05/29 22:06:32;;;;;;;6.40;2.28;;;22.70;66.70;;;;;;10097808;28;20021;-63
2023/05/29 22:11:25;;;;;;;6.10;2.47;;;22.60;67.00;;;;;;10098157;28;20246;-64
2023/05/29 22:16:17;;;;;;;4.78;2.38;;;22.60;67.20;;;;;;10083885;28;20052;-62
2023/05/29 22:21:09;;;;;;;5.75;3.22;;;22.50;67.40;;;;;;10103619;28;20394;-62
2023/05/29 22:26:01;;;;;;;4.85;2.33;;;22.40;67.70;;;;;;10105068;28;20033;-61
2023/05/29 22:30:55;;;;;;;7.22;2.72;;;22.30;67.90;;;;;;10091920;28;20120;-65
2023/05/29 22:35:47;;;;;;;5.57;2.53;;;22.20;69.10;;;;;;10088531;28;20037;-61
2023/05/29 22:40:37;;;;;;;7.22;2.47;;;22.10;68.80;;;;;;10088404;28;20040;-61
2023/05/29 22:45:28;;;;;;;5.10;2.33;;;22.10;69.30;;;;;;10104376;28;20035;-65
2023/05/29 22:50:19;;;;;;;4.70;2.30;;;21.90;69.80;;;;;;10103993;28;20527;-61
2023/05/29 22:55:09;;;;;;;4.43;2.58;;;21.70;70.20;;;;;;10103704;28;20033;-62
2023/05/29 23:00:00;;;;;;;5.68;2.92;;;21.60;70.80;;;;;;10103365;28;20024;-61
2023/05/29 23:04:50;;;;;;;6.22;3.70;;;21.60;70.90;;;;;;10104413;28;20102;-63
2023/05/29 23:09:42;;;;;;;2.33;2.10;;;21.50;71.10;;;;;;10103121;28;20124;-61
2023/05/29 23:14:32;;;;;;;5.22;2.25;;;21.40;71.50;;;;;;10102786;28;20047;-61
2023/05/29 23:19:23;;;;;;;5.35;2.30;;;21.40;72.00;;;;;;10102981;28;20120;-61
2023/05/29 23:24:14;;;;;;;4.22;2.47;;;21.20;72.30;;;;;;10099851;28;20027;-62
2023/05/29 23:29:06;;;;;;;5.88;1.90;;;21.20;72.80;;;;;;10090947;28;20467;-63
2023/05/29 23:33:57;;;;;;;4.03;2.30;;;21.00;73.20;;;;;;10076348;28;20392;-61
2023/05/29 23:38:47;;;;;;;5.25;2.10;;;21.00;73.80;;;;;;10055525;28;20107;-62
2023/05/29 23:43:38;;;;;;;4.10;2.22;;;21.00;73.40;;;;;;10089925;28;20491;-60
2023/05/29 23:48:29;;;;;;;6.10;2.28;;;20.90;73.70;;;;;;10102211;28;20475;-61
2023/05/29 23:53:19;;;;;;;5.22;2.03;;;20.80;74.00;;;;;;10119165;28;20482;-62
2023/05/29 23:58:10;;;;;;;10.93;2.90;;;20.70;74.30;;;;;;10098135;28;20048;-70
